createdAt,value
2023-02-13T00:00:35.932Z,7.40
2023-02-13T00:03:02.407Z,7.50
2023-02-13T00:05:30.536Z,6.63
2023-02-13T00:08:00.504Z,8.70
2023-02-13T00:10:30.451Z,11.50
2023-02-13T00:13:00.127Z,8.90
2023-02-13T00:15:27.020Z,6.80
2023-02-13T00:17:54.648Z,6.03
2023-02-13T00:20:22.014Z,6.67
2023-02-13T00:22:48.882Z,5.87
2023-02-13T00:25:15.517Z,6.17
2023-02-13T00:27:42.995Z,6.03
2023-02-13T00:30:11.086Z,4.80
2023-02-13T00:32:39.429Z,6.23
2023-02-13T00:35:05.934Z,6.10
2023-02-13T00:37:33.398Z,5.00
2023-02-13T00:40:00.449Z,6.07
2023-02-13T00:42:29.638Z,6.07
2023-02-13T00:44:57.293Z,4.50
2023-02-13T00:47:27.614Z,8.97
2023-02-13T00:49:56.796Z,6.33
2023-02-13T00:52:23.739Z,6.67
2023-02-13T00:54:52.987Z,7.03
2023-02-13T00:57:19.332Z,7.43
2023-02-13T00:59:49.705Z,6.07
2023-02-13T01:02:16.964Z,6.13
2023-02-13T01:04:43.432Z,7.73
2023-02-13T01:07:10.046Z,7.93
2023-02-13T01:09:37.130Z,6.83
2023-02-13T01:12:04.061Z,9.80
2023-02-13T01:14:32.795Z,7.07
2023-02-13T01:16:59.382Z,7.13
2023-02-13T01:19:28.290Z,7.57
2023-02-13T01:21:54.986Z,5.87
2023-02-13T01:24:21.452Z,5.07
2023-02-13T01:26:47.825Z,6.63
2023-02-13T01:29:17.459Z,7.77
2023-02-13T01:31:44.206Z,6.37
2023-02-13T01:34:11.851Z,7.13
2023-02-13T01:36:39.222Z,5.53
2023-02-13T01:39:05.622Z,8.93
2023-02-13T01:41:34.266Z,7.77
2023-02-13T01:44:01.730Z,10.27
2023-02-13T01:46:38.790Z,7.67
2023-02-13T01:49:13.640Z,8.03
2023-02-13T01:51:42.719Z,7.25
2023-02-13T01:54:11.665Z,7.10
2023-02-13T01:56:41.819Z,6.97
2023-02-13T01:59:13.048Z,8.33
2023-02-13T02:01:39.883Z,8.53
2023-02-13T02:04:22.445Z,6.70
2023-02-13T02:06:55.684Z,8.40
2023-02-13T02:09:32.957Z,7.47
2023-02-13T02:12:11.095Z,8.47
2023-02-13T02:14:39.606Z,8.37
2023-02-13T02:17:08.284Z,8.57
2023-02-13T02:19:49.877Z,9.53
2023-02-13T02:22:25.122Z,8.93
2023-02-13T02:25:07.199Z,8.70
2023-02-13T02:27:53.147Z,6.87
2023-02-13T02:30:27.532Z,8.45
2023-02-13T02:33:01.561Z,11.50
2023-02-13T02:35:54.136Z,8.30
2023-02-13T02:38:36.132Z,10.13
2023-02-13T02:41:06.403Z,8.63
2023-02-13T02:43:41.762Z,10.07
2023-02-13T02:46:32.689Z,10.90
2023-02-13T02:49:27.603Z,9.47
2023-02-13T02:52:18.104Z,9.90
2023-02-13T02:55:06.669Z,10.03
2023-02-13T02:58:17.711Z,8.83
2023-02-13T03:01:04.421Z,7.95
2023-02-13T03:03:55.317Z,9.15
2023-02-13T03:06:27.494Z,7.53
2023-02-13T03:09:20.031Z,9.67
2023-02-13T03:12:23.473Z,9.07
2023-02-13T03:14:49.912Z,9.10
2023-02-13T03:17:37.478Z,11.27
2023-02-13T03:20:31.154Z,8.63
2023-02-13T03:23:13.865Z,11.77
2023-02-13T03:25:48.448Z,10.63
2023-02-13T03:28:40.541Z,8.47
2023-02-13T03:31:08.408Z,10.03
2023-02-13T03:33:40.750Z,7.97
2023-02-13T03:37:04.401Z,9.33
2023-02-13T03:39:44.785Z,10.57
2023-02-13T03:42:16.075Z,9.17
2023-02-13T03:45:11.764Z,10.33
2023-02-13T03:47:46.926Z,10.17
2023-02-13T03:50:14.656Z,10.80
2023-02-13T03:52:58.995Z,11.43
2023-02-13T03:55:48.473Z,9.27
2023-02-13T03:58:41.424Z,10.70
2023-02-13T04:01:18.224Z,8.33
2023-02-13T04:03:44.871Z,10.53
2023-02-13T04:06:16.044Z,8.67
2023-02-13T04:08:42.955Z,7.93
2023-02-13T04:11:14.269Z,12.27
2023-02-13T04:13:49.677Z,11.07
2023-02-13T04:16:23.749Z,10.43
2023-02-13T04:18:53.805Z,11.43
2023-02-13T04:21:20.983Z,11.33
2023-02-13T04:23:51.042Z,7.63
2023-02-13T04:26:21.980Z,9.70
2023-02-13T04:28:48.304Z,13.87
2023-02-13T04:31:16.221Z,10.53
2023-02-13T04:33:42.714Z,8.93
2023-02-13T04:36:14.467Z,9.00
2023-02-13T04:38:41.003Z,9.83
2023-02-13T04:41:13.774Z,11.00
2023-02-13T04:43:41.501Z,11.20
2023-02-13T04:46:08.120Z,7.53
2023-02-13T04:48:35.907Z,11.33
2023-02-13T04:51:03.483Z,10.80
2023-02-13T04:53:31.235Z,7.60
2023-02-13T04:55:58.024Z,9.60
2023-02-13T04:58:31.910Z,9.90
2023-02-13T05:01:00.299Z,8.90
2023-02-13T05:03:30.709Z,10.53
2023-02-13T05:05:59.072Z,10.03
2023-02-13T05:08:25.636Z,10.73
2023-02-13T05:10:51.970Z,8.17
2023-02-13T05:13:21.660Z,8.73
2023-02-13T05:15:49.799Z,11.67
2023-02-13T05:18:16.579Z,9.40
2023-02-13T05:20:43.150Z,10.10
2023-02-13T05:23:25.743Z,10.87
2023-02-13T05:25:52.088Z,10.77
2023-02-13T05:28:37.693Z,9.97
2023-02-13T05:31:04.229Z,8.60
2023-02-13T05:33:31.821Z,9.83
2023-02-13T05:35:58.127Z,10.37
2023-02-13T05:38:24.856Z,8.17
2023-02-13T05:40:51.207Z,10.27
2023-02-13T05:43:17.949Z,14.10
2023-02-13T05:45:46.797Z,8.07
2023-02-13T05:48:13.219Z,7.63
2023-02-13T05:50:40.243Z,9.23
2023-02-13T05:53:06.681Z,12.53
2023-02-13T05:55:32.999Z,12.43
2023-02-13T05:58:00.829Z,13.70
2023-02-13T06:00:27.149Z,11.90
2023-02-13T06:02:55.226Z,10.07
2023-02-13T06:05:21.658Z,10.73
2023-02-13T06:07:50.470Z,12.67
2023-02-13T06:10:16.871Z,11.53
2023-02-13T06:12:43.325Z,11.40
2023-02-13T06:15:11.094Z,10.30
2023-02-13T06:17:37.601Z,10.67
2023-02-13T06:20:07.040Z,10.57
2023-02-13T06:22:34.779Z,9.90
2023-02-13T06:25:03.576Z,14.77
2023-02-13T06:27:31.118Z,8.90
2023-02-13T06:29:58.582Z,12.23
2023-02-13T06:32:25.781Z,10.07
2023-02-13T06:34:52.110Z,11.03
2023-02-13T06:37:18.577Z,10.53
2023-02-13T06:39:45.291Z,8.17
2023-02-13T06:42:15.490Z,9.47
2023-02-13T06:44:41.931Z,11.93
2023-02-13T06:47:11.419Z,13.03
2023-02-13T06:49:37.884Z,9.30
2023-02-13T06:52:04.457Z,10.90
2023-02-13T06:54:45.906Z,10.50
2023-02-13T06:57:13.601Z,14.67
2023-02-13T06:59:41.403Z,12.40
2023-02-13T07:02:09.970Z,9.27
2023-02-13T07:04:36.373Z,13.20
2023-02-13T07:07:02.699Z,11.77
2023-02-13T07:09:34.816Z,11.53
2023-02-13T07:12:03.234Z,9.27
2023-02-13T07:14:32.865Z,10.07
2023-02-13T07:17:03.110Z,11.60
2023-02-13T07:19:29.838Z,11.87
2023-02-13T07:21:56.160Z,11.43
2023-02-13T07:24:22.784Z,10.97
2023-02-13T07:26:49.070Z,14.50
2023-02-13T07:29:18.667Z,12.53
2023-02-13T07:31:45.028Z,10.43
2023-02-13T07:34:11.747Z,11.13
2023-02-13T07:36:39.662Z,10.67
2023-02-13T07:39:06.057Z,11.20
2023-02-13T07:41:34.462Z,14.00
2023-02-13T07:44:02.248Z,12.37
2023-02-13T07:46:28.820Z,12.57
2023-02-13T07:48:57.216Z,13.10
2023-02-13T07:51:30.091Z,14.23
2023-02-13T07:53:57.885Z,10.43
2023-02-13T07:56:27.052Z,12.47
2023-02-13T07:58:55.458Z,12.43
2023-02-13T08:01:21.855Z,16.57
2023-02-13T08:03:52.459Z,16.67
2023-02-13T08:06:20.628Z,12.90
2023-02-13T08:08:47.604Z,17.17
2023-02-13T08:11:47.767Z,14.13
2023-02-13T08:14:18.185Z,13.70
2023-02-13T08:16:47.019Z,17.13
2023-02-13T08:19:13.988Z,14.67
2023-02-13T08:21:42.489Z,14.20
2023-02-13T08:24:09.242Z,11.23
2023-02-13T08:26:36.873Z,14.40
2023-02-13T08:29:11.045Z,17.90
2023-02-13T08:31:42.008Z,13.63
2023-02-13T08:34:08.576Z,14.17
2023-02-13T08:36:35.209Z,13.77
2023-02-13T08:39:04.026Z,13.80
2023-02-13T08:41:30.508Z,15.17
2023-02-13T08:43:57.048Z,18.53
2023-02-13T08:46:23.615Z,12.83
2023-02-13T08:48:50.389Z,13.33
2023-02-13T08:51:17.038Z,14.57
2023-02-13T08:53:43.381Z,13.63
2023-02-13T08:56:13.386Z,9.77
2023-02-13T08:58:41.360Z,14.77
2023-02-13T09:01:10.784Z,12.83
2023-02-13T09:03:37.384Z,15.77
2023-02-13T09:06:04.086Z,11.90
2023-02-13T09:08:32.890Z,14.27
2023-02-13T09:11:03.866Z,10.60
2023-02-13T09:13:33.035Z,12.00
2023-02-13T09:16:01.425Z,13.07
2023-02-13T09:18:37.040Z,13.83
2023-02-13T09:21:04.971Z,10.43
2023-02-13T09:23:33.384Z,15.83
2023-02-13T09:26:01.198Z,14.27
2023-02-13T09:28:31.007Z,10.60
2023-02-13T09:30:58.292Z,10.80
2023-02-13T09:33:24.972Z,11.53
2023-02-13T09:35:51.833Z,9.13
2023-02-13T09:38:20.610Z,11.17
2023-02-13T09:40:53.038Z,11.27
2023-02-13T09:43:39.760Z,11.87
2023-02-13T09:46:26.488Z,10.30
2023-02-13T09:51:23.850Z,10.52
2023-02-13T09:53:54.524Z,8.67
2023-02-13T09:56:38.309Z,12.43
2023-02-13T09:59:23.189Z,9.93
2023-02-13T10:01:51.638Z,10.90
2023-02-13T10:07:26.993Z,10.43
2023-02-13T10:10:04.213Z,9.23
2023-02-13T10:12:42.286Z,8.20
2023-02-13T10:15:23.674Z,7.93
2023-02-13T10:18:14.908Z,8.73
2023-02-13T10:20:51.619Z,7.93
2023-02-13T10:23:37.917Z,7.77
2023-02-13T10:30:59.768Z,9.95
2023-02-13T10:33:29.479Z,9.35
2023-02-13T10:36:04.527Z,11.32
2023-02-13T10:38:33.061Z,10.55
2023-02-13T10:41:05.271Z,7.85
2023-02-13T10:43:57.695Z,8.77
2023-02-13T10:46:33.720Z,8.05
2023-02-13T10:51:31.036Z,9.60
2023-02-13T10:54:06.614Z,7.35
2023-02-13T10:56:49.457Z,7.97
2023-02-13T10:59:27.406Z,8.10
2023-02-13T11:01:56.390Z,6.65
2023-02-13T11:04:23.939Z,6.88
2023-02-13T11:06:59.158Z,6.72
2023-02-13T11:09:27.209Z,6.22
2023-02-13T11:11:53.976Z,5.97
2023-02-13T11:14:24.872Z,6.07
2023-02-13T11:16:56.028Z,7.43
2023-02-13T11:19:30.326Z,7.50
2023-02-13T11:22:01.919Z,6.10
2023-02-13T11:24:32.936Z,6.72
2023-02-13T11:27:09.517Z,6.63
2023-02-13T11:29:37.545Z,6.55
2023-02-13T11:32:21.081Z,6.05
2023-02-13T11:34:49.846Z,6.18
2023-02-13T11:37:18.617Z,6.32
2023-02-13T11:39:51.154Z,5.85
2023-02-13T11:42:36.225Z,4.85
2023-02-13T11:47:41.372Z,6.32
2023-02-13T11:50:28.391Z,5.05
2023-02-13T11:53:03.415Z,5.63
2023-02-13T11:55:38.297Z,6.00
2023-02-13T11:58:23.195Z,4.85
2023-02-13T12:00:49.647Z,5.20
2023-02-13T12:03:19.483Z,6.82
2023-02-13T12:06:00.425Z,6.25
2023-02-13T12:08:28.013Z,4.72
2023-02-13T12:11:06.313Z,4.93
2023-02-13T12:13:40.406Z,4.53
2023-02-13T12:16:13.120Z,4.65
2023-02-13T12:18:44.811Z,4.32
2023-02-13T12:21:28.054Z,4.60
2023-02-13T12:24:08.738Z,3.78
2023-02-13T12:26:36.765Z,4.90
2023-02-13T12:29:25.305Z,3.90
2023-02-13T12:32:12.667Z,4.10
2023-02-13T12:34:40.011Z,5.32
2023-02-13T12:37:09.380Z,4.88
2023-02-13T12:39:41.393Z,4.70
2023-02-13T12:42:17.685Z,5.05
2023-02-13T12:44:53.798Z,4.75
2023-02-13T12:47:26.654Z,5.72
2023-02-13T12:50:02.944Z,4.40
2023-02-13T12:52:38.079Z,3.90
2023-02-13T12:55:06.246Z,4.70
2023-02-13T12:57:49.865Z,4.55
2023-02-13T13:00:36.649Z,4.82
2023-02-13T13:03:13.013Z,3.80
2023-02-13T13:06:08.972Z,3.55
2023-02-13T13:08:40.069Z,3.88
2023-02-13T13:11:23.202Z,5.38
2023-02-13T13:13:55.212Z,3.97
2023-02-13T13:16:30.831Z,4.65
2023-02-13T13:18:58.648Z,4.57
2023-02-13T13:21:35.409Z,5.63
2023-02-13T13:24:23.603Z,3.47
2023-02-13T13:26:57.406Z,5.65
2023-02-13T13:29:27.255Z,5.78
2023-02-13T13:31:56.121Z,4.25
2023-02-13T13:34:26.035Z,4.30
2023-02-13T13:37:10.649Z,4.60
2023-02-13T13:42:21.912Z,4.22
2023-02-13T13:44:55.148Z,3.53
2023-02-13T13:47:25.042Z,2.97
2023-02-13T13:49:55.005Z,2.70
2023-02-13T13:52:40.366Z,3.42
2023-02-13T13:55:12.350Z,3.33
2023-02-13T13:57:41.709Z,3.70
2023-02-13T14:00:16.515Z,2.58
2023-02-13T14:02:50.902Z,3.28
2023-02-13T14:05:21.908Z,3.53
2023-02-13T14:07:50.543Z,2.92
2023-02-13T14:10:26.126Z,6.37
2023-02-13T14:12:56.650Z,3.60
2023-02-13T14:15:45.756Z,5.03
2023-02-13T14:18:13.200Z,4.60
2023-02-13T14:20:41.616Z,3.73
2023-02-13T14:23:32.226Z,3.33
2023-02-13T14:26:17.520Z,3.10
2023-02-13T14:28:49.747Z,3.77
2023-02-13T14:31:22.648Z,2.57
2023-02-13T14:34:04.196Z,3.07
2023-02-13T14:36:35.310Z,4.60
2023-02-13T14:39:20.340Z,4.17
2023-02-13T14:41:55.060Z,5.93
2023-02-13T14:44:32.615Z,3.60
2023-02-13T14:47:02.265Z,4.10
2023-02-13T14:49:32.696Z,3.13
2023-02-13T14:52:07.448Z,5.53
2023-02-13T14:54:35.372Z,4.03
2023-02-13T14:57:08.793Z,5.30
2023-02-13T14:59:41.093Z,3.23
2023-02-13T15:02:10.049Z,5.93
2023-02-13T15:04:42.555Z,4.70
2023-02-13T15:07:24.652Z,4.50
2023-02-13T15:09:52.888Z,4.17
2023-02-13T15:12:36.046Z,3.37
2023-02-13T15:15:22.328Z,3.93
2023-02-13T15:17:48.989Z,3.90
2023-02-13T15:20:23.058Z,3.47
2023-02-13T15:22:54.917Z,3.53
2023-02-13T15:25:31.612Z,4.43
2023-02-13T15:27:59.666Z,4.40
2023-02-13T15:30:31.645Z,4.30
2023-02-13T15:33:01.069Z,4.20
2023-02-13T15:35:29.007Z,5.47
2023-02-13T15:37:57.948Z,6.00
2023-02-13T15:40:28.908Z,3.33
2023-02-13T15:42:56.960Z,3.93
2023-02-13T15:45:27.630Z,4.57
2023-02-13T15:47:59.290Z,5.90
2023-02-13T15:50:29.939Z,4.23
2023-02-13T15:52:59.472Z,3.67
2023-02-13T15:55:28.920Z,3.87
2023-02-13T15:57:58.108Z,4.70
2023-02-13T16:00:31.059Z,4.13
2023-02-13T16:02:58.745Z,3.80
2023-02-13T16:05:38.993Z,4.60
2023-02-13T16:08:26.895Z,4.67
2023-02-13T16:11:11.218Z,4.68
2023-02-13T16:13:40.382Z,3.53
2023-02-13T16:16:09.812Z,4.67
2023-02-13T16:18:39.007Z,3.97
2023-02-13T16:21:06.895Z,4.00
2023-02-13T16:23:33.377Z,4.33
2023-02-13T16:26:08.170Z,4.90
2023-02-13T16:28:35.763Z,2.57
2023-02-13T16:31:03.305Z,4.63
2023-02-13T16:33:33.149Z,3.90
2023-02-13T16:36:12.422Z,6.57
2023-02-13T16:38:45.291Z,3.97
2023-02-13T16:41:28.626Z,3.00
2023-02-13T16:44:00.455Z,5.53
2023-02-13T16:46:28.930Z,6.33
2023-02-13T16:48:59.197Z,4.90
2023-02-13T16:51:31.719Z,2.93
2023-02-13T16:53:58.836Z,3.67
2023-02-13T16:56:25.781Z,6.37
2023-02-13T16:59:14.339Z,5.57
2023-02-13T17:01:41.018Z,3.67
2023-02-13T17:04:30.101Z,4.47
2023-02-13T17:06:56.731Z,4.23
2023-02-13T17:09:23.623Z,3.77
2023-02-13T17:11:51.952Z,3.70
2023-02-13T17:14:20.735Z,4.63
2023-02-13T17:16:48.189Z,4.00
2023-02-13T17:19:14.710Z,5.47
2023-02-13T17:21:42.198Z,4.80
2023-02-13T17:24:12.462Z,5.07
2023-02-13T17:26:40.168Z,4.77
2023-02-13T17:29:08.338Z,5.00
2023-02-13T17:31:34.929Z,4.77
2023-02-13T17:34:04.762Z,4.17
2023-02-13T17:36:33.958Z,5.33
2023-02-13T17:39:01.765Z,5.67
2023-02-13T17:41:28.684Z,6.73
2023-02-13T17:43:55.094Z,6.30
2023-02-13T17:46:21.671Z,4.63
2023-02-13T17:48:48.255Z,7.50
2023-02-13T17:51:17.075Z,5.37
2023-02-13T17:53:45.188Z,4.77
2023-02-13T17:56:11.572Z,6.57
2023-02-13T17:58:39.182Z,5.50
2023-02-13T18:01:06.022Z,4.87
2023-02-13T18:03:33.750Z,4.33
2023-02-13T18:06:02.405Z,7.07
2023-02-13T18:08:29.775Z,5.90
2023-02-13T18:10:58.449Z,7.23
2023-02-13T18:13:25.010Z,8.27
2023-02-13T18:15:54.650Z,6.97
2023-02-13T18:18:21.007Z,6.27
2023-02-13T18:20:54.333Z,8.87
2023-02-13T18:23:22.882Z,6.10
2023-02-13T18:25:51.736Z,6.93
2023-02-13T18:28:20.197Z,6.10
2023-02-13T18:30:47.539Z,8.17
2023-02-13T18:33:14.043Z,7.20
2023-02-13T18:35:40.324Z,6.63
2023-02-13T18:38:08.360Z,7.07
2023-02-13T18:40:35.826Z,5.43
2023-02-13T18:43:04.491Z,6.97
2023-02-13T18:45:31.257Z,6.27
2023-02-13T18:48:01.359Z,5.07
2023-02-13T18:50:27.845Z,8.00
2023-02-13T18:52:56.606Z,8.87
2023-02-13T18:55:23.035Z,8.90
2023-02-13T18:57:56.135Z,7.77
2023-02-13T19:00:23.941Z,5.37
2023-02-13T19:02:50.345Z,5.30
2023-02-13T19:05:21.759Z,8.00
2023-02-13T19:07:48.507Z,5.17
2023-02-13T19:10:15.790Z,6.67
2023-02-13T19:12:43.281Z,6.93
2023-02-13T19:15:10.498Z,4.63
2023-02-13T19:17:38.621Z,7.33
2023-02-13T19:20:05.871Z,5.57
2023-02-13T19:22:32.492Z,8.23
2023-02-13T19:24:59.231Z,5.67
2023-02-13T19:27:26.334Z,7.43
2023-02-13T19:29:53.501Z,7.43
2023-02-13T19:32:20.480Z,7.73
2023-02-13T19:34:52.672Z,12.00
2023-02-13T19:37:20.108Z,9.30
2023-02-13T19:39:52.563Z,7.80
2023-02-13T19:42:19.098Z,8.07
2023-02-13T19:44:47.980Z,7.20
2023-02-13T19:47:16.137Z,6.57
2023-02-13T19:49:45.867Z,9.20
2023-02-13T19:52:18.377Z,7.47
2023-02-13T19:54:45.323Z,6.70
2023-02-13T19:57:15.609Z,9.40
2023-02-13T19:59:48.498Z,7.97
2023-02-13T20:02:15.276Z,10.93
2023-02-13T20:04:44.146Z,8.50
2023-02-13T20:07:12.218Z,6.63
2023-02-13T20:09:39.789Z,7.93
2023-02-13T20:12:08.251Z,7.57
2023-02-13T20:14:37.964Z,7.03
2023-02-13T20:17:07.477Z,10.13
2023-02-13T20:19:41.120Z,7.37
2023-02-13T20:22:07.518Z,7.50
2023-02-13T20:24:34.825Z,8.97
2023-02-13T20:27:01.420Z,8.60
2023-02-13T20:29:28.211Z,7.20
2023-02-13T20:31:55.880Z,8.10
2023-02-13T20:34:29.620Z,9.60
2023-02-13T20:36:58.464Z,7.77
2023-02-13T20:39:26.011Z,9.80
2023-02-13T20:41:53.476Z,11.80
2023-02-13T20:44:24.601Z,9.77
2023-02-13T20:46:51.379Z,9.60
2023-02-13T20:49:21.738Z,9.10
2023-02-13T20:51:49.253Z,11.17
2023-02-13T20:54:16.043Z,10.47
2023-02-13T20:56:45.855Z,11.37
2023-02-13T20:59:13.485Z,8.17
2023-02-13T21:01:44.130Z,8.70
2023-02-13T21:04:13.608Z,8.43
2023-02-13T21:06:44.169Z,13.50
2023-02-13T21:09:11.298Z,8.70
2023-02-13T21:11:41.983Z,9.73
2023-02-13T21:14:10.531Z,7.03
2023-02-13T21:16:40.688Z,7.93
2023-02-13T21:19:11.530Z,9.07
2023-02-13T21:21:43.991Z,11.70
2023-02-13T21:24:12.121Z,10.00
2023-02-13T21:26:40.351Z,10.37
2023-02-13T21:29:08.423Z,11.67
2023-02-13T21:31:37.652Z,11.20
2023-02-13T21:34:07.111Z,9.20
2023-02-13T21:36:34.778Z,12.27
2023-02-13T21:39:02.311Z,10.60
2023-02-13T21:41:30.838Z,10.80
2023-02-13T21:43:59.361Z,11.60
2023-02-13T21:46:28.768Z,8.80
2023-02-13T21:48:56.259Z,8.53
2023-02-13T21:51:25.264Z,12.83
2023-02-13T21:53:52.238Z,10.53
2023-02-13T21:56:33.595Z,13.93
2023-02-13T21:59:00.265Z,10.97
2023-02-13T22:01:34.235Z,10.87
2023-02-13T22:04:09.983Z,11.37
2023-02-13T22:06:40.426Z,8.83
2023-02-13T22:09:07.462Z,13.03
2023-02-13T22:11:40.254Z,9.97
2023-02-13T22:14:08.398Z,11.60
2023-02-13T22:16:36.682Z,8.47
2023-02-13T22:19:05.406Z,12.23
2023-02-13T22:21:33.259Z,11.63
2023-02-13T22:24:00.116Z,11.17
2023-02-13T22:26:30.515Z,12.97
2023-02-13T22:29:00.236Z,12.83
2023-02-13T22:31:26.893Z,10.93
2023-02-13T22:34:09.633Z,9.83
2023-02-13T22:36:42.132Z,12.33
2023-02-13T22:39:11.456Z,9.33
2023-02-13T22:41:38.514Z,10.00
2023-02-13T22:44:05.512Z,11.43
2023-02-13T22:46:35.574Z,12.27
2023-02-13T22:49:05.645Z,13.33
2023-02-13T22:51:35.800Z,9.60
2023-02-13T22:54:04.444Z,11.43
2023-02-13T22:56:31.087Z,11.90
2023-02-13T22:58:58.079Z,9.00
2023-02-13T23:01:25.275Z,11.83
2023-02-13T23:03:52.429Z,7.13
2023-02-13T23:06:20.362Z,8.10
2023-02-13T23:08:51.250Z,9.43
2023-02-13T23:11:37.150Z,9.37
2023-02-13T23:14:06.972Z,11.87
2023-02-13T23:16:56.372Z,13.00
2023-02-13T23:19:23.143Z,8.97
2023-02-13T23:21:52.268Z,8.93
2023-02-13T23:24:18.676Z,10.30
2023-02-13T23:26:45.158Z,11.63
2023-02-13T23:29:12.700Z,10.37
2023-02-13T23:31:39.348Z,12.87
2023-02-13T23:34:05.884Z,8.83
2023-02-13T23:36:34.975Z,9.13
2023-02-13T23:39:05.422Z,10.87
2023-02-13T23:41:33.170Z,9.57
2023-02-13T23:43:59.567Z,10.27
2023-02-13T23:46:32.721Z,9.33
2023-02-13T23:48:59.896Z,12.53
2023-02-13T23:51:27.344Z,12.90
2023-02-13T23:53:57.530Z,10.33
2023-02-13T23:56:26.410Z,9.77
2023-02-13T23:58:53.295Z,12.20
